sensor_id;sensor_type;location;lat;lon;timestamp;P1;durP1;ratioP1;P2;durP2;ratioP2
22660;SDS011;11497;52.222;21.246;2023-02-28T00:01:34;89.10;;;37.75;;
22660;SDS011;11497;52.222;21.246;2023-02-28T00:04:02;82.57;;;35.22;;
22660;SDS011;11497;52.222;21.246;2023-02-28T00:06:30;87.53;;;37.80;;
22660;SDS011;11497;52.222;21.246;2023-02-28T00:08:57;79.85;;;34.50;;
22660;SDS011;11497;52.222;21.246;2023-02-28T00:11:25;83.03;;;35.50;;
22660;SDS011;11497;52.222;21.246;2023-02-28T00:13:54;81.38;;;36.33;;
22660;SDS011;11497;52.222;21.246;2023-02-28T00:16:22;78.05;;;34.83;;
22660;SDS011;11497;52.222;21.246;2023-02-28T00:18:50;72.68;;;32.70;;
22660;SDS011;11497;52.222;21.246;2023-02-28T00:21:19;76.78;;;33.63;;
22660;SDS011;11497;52.222;21.246;2023-02-28T00:23:47;73.22;;;32.72;;
22660;SDS011;11497;52.222;21.246;2023-02-28T00:26:15;73.38;;;32.88;;
22660;SDS011;11497;52.222;21.246;2023-02-28T00:28:44;77.35;;;34.85;;
22660;SDS011;11497;52.222;21.246;2023-02-28T00:31:12;77.45;;;33.90;;
22660;SDS011;11497;52.222;21.246;2023-02-28T00:33:40;75.55;;;33.92;;
22660;SDS011;11497;52.222;21.246;2023-02-28T00:36:09;80.15;;;35.22;;
22660;SDS011;11497;52.222;21.246;2023-02-28T00:38:38;75.70;;;32.50;;
22660;SDS011;11497;52.222;21.246;2023-02-28T00:41:07;78.38;;;34.60;;
22660;SDS011;11497;52.222;21.246;2023-02-28T00:43:36;82.68;;;33.53;;
22660;SDS011;11497;52.222;21.246;2023-02-28T00:46:07;76.72;;;32.22;;
22660;SDS011;11497;52.222;21.246;2023-02-28T00:48:35;85.47;;;35.00;;
22660;SDS011;11497;52.222;21.246;2023-02-28T00:51:03;95.15;;;38.03;;
22660;SDS011;11497;52.222;21.246;2023-02-28T00:53:31;82.28;;;36.15;;
22660;SDS011;11497;52.222;21.246;2023-02-28T00:55:59;88.43;;;36.22;;
22660;SDS011;11497;52.222;21.246;2023-02-28T00:58:27;87.90;;;37.58;;
22660;SDS011;11497;52.222;21.246;2023-02-28T01:00:56;91.20;;;40.38;;
22660;SDS011;11497;52.222;21.246;2023-02-28T01:03:24;93.32;;;41.65;;
22660;SDS011;11497;52.222;21.246;2023-02-28T01:05:52;97.45;;;40.30;;
22660;SDS011;11497;52.222;21.246;2023-02-28T01:08:20;98.97;;;41.13;;
22660;SDS011;11497;52.222;21.246;2023-02-28T01:10:49;110.32;;;44.80;;
22660;SDS011;11497;52.222;21.246;2023-02-28T01:13:17;112.35;;;46.28;;
22660;SDS011;11497;52.222;21.246;2023-02-28T01:15:50;110.72;;;46.35;;
22660;SDS011;11497;52.222;21.246;2023-02-28T01:18:19;102.38;;;44.08;;
22660;SDS011;11497;52.222;21.246;2023-02-28T01:20:48;88.78;;;39.47;;
22660;SDS011;11497;52.222;21.246;2023-02-28T01:23:19;84.93;;;36.90;;
22660;SDS011;11497;52.222;21.246;2023-02-28T01:25:50;78.97;;;34.80;;
22660;SDS011;11497;52.222;21.246;2023-02-28T01:28:18;78.80;;;32.63;;
22660;SDS011;11497;52.222;21.246;2023-02-28T01:30:47;77.03;;;34.47;;
22660;SDS011;11497;52.222;21.246;2023-02-28T01:33:16;75.00;;;34.03;;
22660;SDS011;11497;52.222;21.246;2023-02-28T01:35:44;80.78;;;34.08;;
22660;SDS011;11497;52.222;21.246;2023-02-28T01:38:12;75.78;;;34.17;;
22660;SDS011;11497;52.222;21.246;2023-02-28T01:40:49;76.35;;;31.77;;
22660;SDS011;11497;52.222;21.246;2023-02-28T01:43:22;77.65;;;34.10;;
22660;SDS011;11497;52.222;21.246;2023-02-28T01:45:54;69.60;;;31.35;;
22660;SDS011;11497;52.222;21.246;2023-02-28T01:48:25;71.28;;;32.15;;
22660;SDS011;11497;52.222;21.246;2023-02-28T01:51:05;73.90;;;32.42;;
22660;SDS011;11497;52.222;21.246;2023-02-28T01:53:39;68.40;;;33.78;;
22660;SDS011;11497;52.222;21.246;2023-02-28T01:56:16;72.82;;;32.03;;
22660;SDS011;11497;52.222;21.246;2023-02-28T01:58:49;74.25;;;32.83;;
22660;SDS011;11497;52.222;21.246;2023-02-28T02:01:19;79.07;;;35.22;;
22660;SDS011;11497;52.222;21.246;2023-02-28T02:03:53;91.28;;;39.45;;
22660;SDS011;11497;52.222;21.246;2023-02-28T02:06:25;97.88;;;39.67;;
22660;SDS011;11497;52.222;21.246;2023-02-28T02:08:56;95.47;;;40.00;;
22660;SDS011;11497;52.222;21.246;2023-02-28T02:11:24;99.32;;;41.38;;
22660;SDS011;11497;52.222;21.246;2023-02-28T02:14:01;104.10;;;42.30;;
22660;SDS011;11497;52.222;21.246;2023-02-28T02:34:19;93.45;;;38.40;;
22660;SDS011;11497;52.222;21.246;2023-02-28T02:39:36;92.55;;;40.50;;
22660;SDS011;11497;52.222;21.246;2023-02-28T02:45:24;94.07;;;39.80;;
22660;SDS011;11497;52.222;21.246;2023-02-28T02:48:12;98.75;;;41.72;;
22660;SDS011;11497;52.222;21.246;2023-02-28T02:50:45;107.97;;;42.80;;
22660;SDS011;11497;52.222;21.246;2023-02-28T02:53:25;108.63;;;43.70;;
22660;SDS011;11497;52.222;21.246;2023-02-28T02:55:59;106.55;;;43.83;;
22660;SDS011;11497;52.222;21.246;2023-02-28T02:58:32;107.30;;;43.15;;
22660;SDS011;11497;52.222;21.246;2023-02-28T03:01:13;113.78;;;43.65;;
22660;SDS011;11497;52.222;21.246;2023-02-28T03:03:56;124.78;;;49.00;;
22660;SDS011;11497;52.222;21.246;2023-02-28T03:06:26;125.63;;;49.30;;
22660;SDS011;11497;52.222;21.246;2023-02-28T03:08:54;126.53;;;49.13;;
22660;SDS011;11497;52.222;21.246;2023-02-28T03:11:22;141.00;;;51.10;;
22660;SDS011;11497;52.222;21.246;2023-02-28T03:25:14;123.82;;;50.13;;
22660;SDS011;11497;52.222;21.246;2023-02-28T03:33:21;132.10;;;51.47;;
22660;SDS011;11497;52.222;21.246;2023-02-28T03:36:01;146.30;;;57.47;;
22660;SDS011;11497;52.222;21.246;2023-02-28T03:38:45;142.25;;;55.15;;
22660;SDS011;11497;52.222;21.246;2023-02-28T03:41:32;148.20;;;58.05;;
22660;SDS011;11497;52.222;21.246;2023-02-28T03:44:16;138.63;;;54.28;;
22660;SDS011;11497;52.222;21.246;2023-02-28T03:46:50;157.57;;;55.22;;
22660;SDS011;11497;52.222;21.246;2023-02-28T03:49:46;147.05;;;54.75;;
22660;SDS011;11497;52.222;21.246;2023-02-28T03:52:20;141.98;;;54.78;;
22660;SDS011;11497;52.222;21.246;2023-02-28T03:54:54;152.30;;;56.50;;
22660;SDS011;11497;52.222;21.246;2023-02-28T03:57:28;141.02;;;55.03;;
22660;SDS011;11497;52.222;21.246;2023-02-28T04:02:40;145.63;;;54.55;;
22660;SDS011;11497;52.222;21.246;2023-02-28T04:05:09;147.13;;;53.97;;
22660;SDS011;11497;52.222;21.246;2023-02-28T04:07:37;141.05;;;55.63;;
22660;SDS011;11497;52.222;21.246;2023-02-28T04:10:05;135.68;;;53.55;;
22660;SDS011;11497;52.222;21.246;2023-02-28T04:12:34;139.90;;;52.00;;
22660;SDS011;11497;52.222;21.246;2023-02-28T04:15:01;138.82;;;54.13;;
22660;SDS011;11497;52.222;21.246;2023-02-28T04:17:29;139.57;;;53.58;;
22660;SDS011;11497;52.222;21.246;2023-02-28T04:19:57;146.55;;;55.70;;
22660;SDS011;11497;52.222;21.246;2023-02-28T04:22:25;134.45;;;54.28;;
22660;SDS011;11497;52.222;21.246;2023-02-28T04:24:53;139.10;;;53.25;;
22660;SDS011;11497;52.222;21.246;2023-02-28T04:27:21;142.18;;;52.60;;
22660;SDS011;11497;52.222;21.246;2023-02-28T04:29:49;143.27;;;54.50;;
22660;SDS011;11497;52.222;21.246;2023-02-28T04:32:17;139.25;;;55.08;;
22660;SDS011;11497;52.222;21.246;2023-02-28T04:34:45;141.77;;;55.95;;
22660;SDS011;11497;52.222;21.246;2023-02-28T04:37:12;133.98;;;54.20;;
22660;SDS011;11497;52.222;21.246;2023-02-28T04:39:41;145.23;;;55.28;;
22660;SDS011;11497;52.222;21.246;2023-02-28T04:42:09;142.25;;;54.05;;
22660;SDS011;11497;52.222;21.246;2023-02-28T04:44:38;137.45;;;54.05;;
22660;SDS011;11497;52.222;21.246;2023-02-28T04:47:06;146.65;;;55.40;;
22660;SDS011;11497;52.222;21.246;2023-02-28T04:49:34;151.77;;;55.50;;
22660;SDS011;11497;52.222;21.246;2023-02-28T04:52:02;142.88;;;55.30;;
22660;SDS011;11497;52.222;21.246;2023-02-28T04:54:30;150.20;;;57.40;;
22660;SDS011;11497;52.222;21.246;2023-02-28T04:56:57;149.70;;;57.78;;
22660;SDS011;11497;52.222;21.246;2023-02-28T04:59:25;156.68;;;56.33;;
22660;SDS011;11497;52.222;21.246;2023-02-28T05:01:53;141.18;;;56.70;;
22660;SDS011;11497;52.222;21.246;2023-02-28T05:04:21;260.17;;;98.53;;
22660;SDS011;11497;52.222;21.246;2023-02-28T05:06:49;311.92;;;111.78;;
22660;SDS011;11497;52.222;21.246;2023-02-28T05:09:17;280.00;;;101.53;;
22660;SDS011;11497;52.222;21.246;2023-02-28T05:11:44;272.48;;;101.93;;
22660;SDS011;11497;52.222;21.246;2023-02-28T05:14:13;265.13;;;101.65;;
22660;SDS011;11497;52.222;21.246;2023-02-28T05:16:41;242.15;;;92.20;;
22660;SDS011;11497;52.222;21.246;2023-02-28T05:19:09;222.07;;;83.28;;
22660;SDS011;11497;52.222;21.246;2023-02-28T05:21:41;184.52;;;72.90;;
22660;SDS011;11497;52.222;21.246;2023-02-28T05:24:17;167.25;;;67.78;;
22660;SDS011;11497;52.222;21.246;2023-02-28T05:26:51;166.55;;;64.47;;
22660;SDS011;11497;52.222;21.246;2023-02-28T05:29:21;174.18;;;64.18;;
22660;SDS011;11497;52.222;21.246;2023-02-28T05:31:49;175.82;;;66.90;;
22660;SDS011;11497;52.222;21.246;2023-02-28T05:34:17;178.95;;;66.95;;
22660;SDS011;11497;52.222;21.246;2023-02-28T05:36:45;175.48;;;66.45;;
22660;SDS011;11497;52.222;21.246;2023-02-28T05:39:13;189.48;;;70.28;;
22660;SDS011;11497;52.222;21.246;2023-02-28T05:41:41;197.68;;;71.68;;
22660;SDS011;11497;52.222;21.246;2023-02-28T05:44:10;185.65;;;71.18;;
22660;SDS011;11497;52.222;21.246;2023-02-28T05:46:39;178.23;;;68.72;;
22660;SDS011;11497;52.222;21.246;2023-02-28T05:49:06;181.68;;;70.32;;
22660;SDS011;11497;52.222;21.246;2023-02-28T05:51:34;182.23;;;70.47;;
22660;SDS011;11497;52.222;21.246;2023-02-28T05:54:06;191.45;;;70.22;;
22660;SDS011;11497;52.222;21.246;2023-02-28T05:56:34;194.25;;;73.05;;
22660;SDS011;11497;52.222;21.246;2023-02-28T05:59:04;206.52;;;77.82;;
22660;SDS011;11497;52.222;21.246;2023-02-28T06:01:39;222.27;;;84.40;;
22660;SDS011;11497;52.222;21.246;2023-02-28T06:04:09;218.02;;;86.80;;
22660;SDS011;11497;52.222;21.246;2023-02-28T06:06:54;212.38;;;82.82;;
22660;SDS011;11497;52.222;21.246;2023-02-28T06:09:24;220.25;;;81.20;;
22660;SDS011;11497;52.222;21.246;2023-02-28T06:11:52;216.43;;;84.88;;
22660;SDS011;11497;52.222;21.246;2023-02-28T06:14:21;281.52;;;105.10;;
22660;SDS011;11497;52.222;21.246;2023-02-28T06:16:48;388.92;;;133.20;;
22660;SDS011;11497;52.222;21.246;2023-02-28T06:19:16;322.42;;;118.43;;
22660;SDS011;11497;52.222;21.246;2023-02-28T06:21:44;303.95;;;117.60;;
22660;SDS011;11497;52.222;21.246;2023-02-28T06:24:15;246.95;;;99.55;;
22660;SDS011;11497;52.222;21.246;2023-02-28T06:26:43;195.73;;;80.85;;
22660;SDS011;11497;52.222;21.246;2023-02-28T06:29:11;186.63;;;79.85;;
22660;SDS011;11497;52.222;21.246;2023-02-28T06:31:38;187.02;;;77.28;;
22660;SDS011;11497;52.222;21.246;2023-02-28T06:34:06;183.35;;;78.93;;
22660;SDS011;11497;52.222;21.246;2023-02-28T06:36:34;171.70;;;76.68;;
22660;SDS011;11497;52.222;21.246;2023-02-28T06:39:02;182.18;;;78.72;;
22660;SDS011;11497;52.222;21.246;2023-02-28T06:41:30;166.48;;;75.65;;
22660;SDS011;11497;52.222;21.246;2023-02-28T06:44:17;179.55;;;77.05;;
22660;SDS011;11497;52.222;21.246;2023-02-28T06:46:45;155.38;;;70.43;;
22660;SDS011;11497;52.222;21.246;2023-02-28T06:49:14;149.10;;;68.95;;
22660;SDS011;11497;52.222;21.246;2023-02-28T06:51:43;135.02;;;66.07;;
22660;SDS011;11497;52.222;21.246;2023-02-28T06:54:14;116.43;;;55.15;;
22660;SDS011;11497;52.222;21.246;2023-02-28T06:56:42;112.95;;;54.55;;
22660;SDS011;11497;52.222;21.246;2023-02-28T06:59:10;101.88;;;50.03;;
22660;SDS011;11497;52.222;21.246;2023-02-28T07:01:38;99.22;;;49.05;;
22660;SDS011;11497;52.222;21.246;2023-02-28T07:04:06;104.47;;;50.05;;
22660;SDS011;11497;52.222;21.246;2023-02-28T07:06:34;102.15;;;47.92;;
22660;SDS011;11497;52.222;21.246;2023-02-28T07:09:02;99.30;;;48.15;;
22660;SDS011;11497;52.222;21.246;2023-02-28T07:11:30;88.85;;;44.78;;
22660;SDS011;11497;52.222;21.246;2023-02-28T07:13:58;80.82;;;38.67;;
22660;SDS011;11497;52.222;21.246;2023-02-28T07:16:26;82.53;;;39.42;;
22660;SDS011;11497;52.222;21.246;2023-02-28T07:18:54;81.65;;;39.97;;
22660;SDS011;11497;52.222;21.246;2023-02-28T07:21:22;86.38;;;42.38;;
22660;SDS011;11497;52.222;21.246;2023-02-28T07:23:51;74.75;;;37.42;;
22660;SDS011;11497;52.222;21.246;2023-02-28T07:26:19;70.15;;;32.72;;
22660;SDS011;11497;52.222;21.246;2023-02-28T07:28:47;83.25;;;38.28;;
22660;SDS011;11497;52.222;21.246;2023-02-28T07:31:16;79.45;;;34.83;;
22660;SDS011;11497;52.222;21.246;2023-02-28T07:33:45;63.35;;;27.17;;
22660;SDS011;11497;52.222;21.246;2023-02-28T07:36:14;64.13;;;30.13;;
22660;SDS011;11497;52.222;21.246;2023-02-28T07:38:46;63.30;;;27.50;;
22660;SDS011;11497;52.222;21.246;2023-02-28T07:41:17;37.20;;;19.98;;
22660;SDS011;11497;52.222;21.246;2023-02-28T07:43:47;36.80;;;17.55;;
22660;SDS011;11497;52.222;21.246;2023-02-28T07:46:15;42.88;;;21.20;;
22660;SDS011;11497;52.222;21.246;2023-02-28T07:48:45;38.83;;;20.05;;
22660;SDS011;11497;52.222;21.246;2023-02-28T07:51:12;35.08;;;19.17;;
22660;SDS011;11497;52.222;21.246;2023-02-28T07:53:40;33.05;;;17.17;;
22660;SDS011;11497;52.222;21.246;2023-02-28T07:56:08;29.65;;;16.33;;
22660;SDS011;11497;52.222;21.246;2023-02-28T07:58:37;26.20;;;14.60;;
22660;SDS011;11497;52.222;21.246;2023-02-28T08:01:05;24.85;;;14.38;;
22660;SDS011;11497;52.222;21.246;2023-02-28T08:03:35;30.33;;;15.00;;
22660;SDS011;11497;52.222;21.246;2023-02-28T08:06:04;25.30;;;13.32;;
22660;SDS011;11497;52.222;21.246;2023-02-28T08:08:34;24.95;;;13.98;;
22660;SDS011;11497;52.222;21.246;2023-02-28T08:11:02;25.02;;;15.27;;
22660;SDS011;11497;52.222;21.246;2023-02-28T08:13:30;27.90;;;15.85;;
22660;SDS011;11497;52.222;21.246;2023-02-28T08:16:00;20.65;;;12.45;;
22660;SDS011;11497;52.222;21.246;2023-02-28T08:18:29;23.90;;;13.38;;
22660;SDS011;11497;52.222;21.246;2023-02-28T08:20:57;26.55;;;11.73;;
22660;SDS011;11497;52.222;21.246;2023-02-28T08:23:26;27.33;;;12.80;;
22660;SDS011;11497;52.222;21.246;2023-02-28T08:25:54;21.23;;;12.98;;
22660;SDS011;11497;52.222;21.246;2023-02-28T08:28:22;22.05;;;12.50;;
22660;SDS011;11497;52.222;21.246;2023-02-28T08:30:53;17.83;;;12.35;;
22660;SDS011;11497;52.222;21.246;2023-02-28T08:33:22;15.63;;;9.70;;
22660;SDS011;11497;52.222;21.246;2023-02-28T08:35:53;15.60;;;10.02;;
22660;SDS011;11497;52.222;21.246;2023-02-28T08:38:22;14.77;;;10.23;;
22660;SDS011;11497;52.222;21.246;2023-02-28T08:40:56;17.30;;;10.35;;
22660;SDS011;11497;52.222;21.246;2023-02-28T08:43:26;14.48;;;10.40;;
22660;SDS011;11497;52.222;21.246;2023-02-28T08:45:54;17.30;;;11.60;;
22660;SDS011;11497;52.222;21.246;2023-02-28T08:48:24;15.02;;;10.82;;
22660;SDS011;11497;52.222;21.246;2023-02-28T08:51:01;16.13;;;11.05;;
22660;SDS011;11497;52.222;21.246;2023-02-28T08:53:34;15.23;;;10.80;;
22660;SDS011;11497;52.222;21.246;2023-02-28T08:56:07;18.48;;;10.80;;
22660;SDS011;11497;52.222;21.246;2023-02-28T08:58:36;16.35;;;11.30;;
22660;SDS011;11497;52.222;21.246;2023-02-28T09:01:39;15.77;;;11.18;;
22660;SDS011;11497;52.222;21.246;2023-02-28T09:04:00;17.60;;;11.80;;
22660;SDS011;11497;52.222;21.246;2023-02-28T09:06:28;18.33;;;11.98;;
22660;SDS011;11497;52.222;21.246;2023-02-28T09:08:57;17.88;;;11.55;;
22660;SDS011;11497;52.222;21.246;2023-02-28T09:11:26;18.65;;;11.40;;
22660;SDS011;11497;52.222;21.246;2023-02-28T09:13:54;15.95;;;11.18;;
22660;SDS011;11497;52.222;21.246;2023-02-28T09:16:22;16.40;;;10.68;;
22660;SDS011;11497;52.222;21.246;2023-02-28T09:18:50;14.80;;;10.80;;
22660;SDS011;11497;52.222;21.246;2023-02-28T09:21:18;18.90;;;11.07;;
22660;SDS011;11497;52.222;21.246;2023-02-28T09:23:47;17.77;;;11.20;;
22660;SDS011;11497;52.222;21.246;2023-02-28T09:26:17;17.73;;;11.60;;
22660;SDS011;11497;52.222;21.246;2023-02-28T09:28:47;15.77;;;10.90;;
22660;SDS011;11497;52.222;21.246;2023-02-28T09:31:17;14.55;;;10.77;;
22660;SDS011;11497;52.222;21.246;2023-02-28T09:33:50;15.65;;;10.40;;
22660;SDS011;11497;52.222;21.246;2023-02-28T09:36:20;15.50;;;9.55;;
22660;SDS011;11497;52.222;21.246;2023-02-28T09:38:52;13.85;;;9.82;;
22660;SDS011;11497;52.222;21.246;2023-02-28T09:41:21;17.58;;;10.50;;
22660;SDS011;11497;52.222;21.246;2023-02-28T09:43:53;18.10;;;10.38;;
22660;SDS011;11497;52.222;21.246;2023-02-28T09:46:29;18.00;;;11.25;;
22660;SDS011;11497;52.222;21.246;2023-02-28T09:49:07;18.15;;;11.68;;
22660;SDS011;11497;52.222;21.246;2023-02-28T09:54:28;20.65;;;13.05;;
22660;SDS011;11497;52.222;21.246;2023-02-28T09:57:01;15.93;;;10.60;;
22660;SDS011;11497;52.222;21.246;2023-02-28T10:05:05;18.77;;;11.73;;
22660;SDS011;11497;52.222;21.246;2023-02-28T10:10:29;19.35;;;10.52;;
22660;SDS011;11497;52.222;21.246;2023-02-28T10:13:06;13.60;;;9.55;;
22660;SDS011;11497;52.222;21.246;2023-02-28T10:15:43;14.98;;;9.68;;
22660;SDS011;11497;52.222;21.246;2023-02-28T10:18:14;15.27;;;8.80;;
22660;SDS011;11497;52.222;21.246;2023-02-28T10:20:49;16.27;;;8.63;;
22660;SDS011;11497;52.222;21.246;2023-02-28T10:23:21;11.75;;;8.13;;
22660;SDS011;11497;52.222;21.246;2023-02-28T10:26:05;17.95;;;8.63;;
22660;SDS011;11497;52.222;21.246;2023-02-28T10:28:42;13.63;;;8.68;;
22660;SDS011;11497;52.222;21.246;2023-02-28T10:31:11;12.88;;;8.45;;
22660;SDS011;11497;52.222;21.246;2023-02-28T10:33:46;12.63;;;8.50;;
22660;SDS011;11497;52.222;21.246;2023-02-28T10:36:16;12.10;;;7.95;;
22660;SDS011;11497;52.222;21.246;2023-02-28T10:38:46;12.80;;;8.25;;
22660;SDS011;11497;52.222;21.246;2023-02-28T10:41:15;17.17;;;8.88;;
22660;SDS011;11497;52.222;21.246;2023-02-28T10:44:13;13.93;;;9.30;;
22660;SDS011;11497;52.222;21.246;2023-02-28T10:46:46;14.38;;;8.50;;
22660;SDS011;11497;52.222;21.246;2023-02-28T10:49:23;13.55;;;9.43;;
22660;SDS011;11497;52.222;21.246;2023-02-28T10:51:57;15.68;;;9.57;;
22660;SDS011;11497;52.222;21.246;2023-02-28T10:54:29;16.08;;;9.18;;
22660;SDS011;11497;52.222;21.246;2023-02-28T10:57:16;15.90;;;9.95;;
22660;SDS011;11497;52.222;21.246;2023-02-28T10:59:46;13.35;;;9.45;;
22660;SDS011;11497;52.222;21.246;2023-02-28T11:02:34;15.70;;;8.50;;
22660;SDS011;11497;52.222;21.246;2023-02-28T11:10:39;16.60;;;8.90;;
22660;SDS011;11497;52.222;21.246;2023-02-28T11:13:20;15.93;;;8.77;;
22660;SDS011;11497;52.222;21.246;2023-02-28T11:15:53;17.05;;;9.60;;
22660;SDS011;11497;52.222;21.246;2023-02-28T11:18:26;16.00;;;9.73;;
22660;SDS011;11497;52.222;21.246;2023-02-28T11:20:57;16.13;;;9.18;;
22660;SDS011;11497;52.222;21.246;2023-02-28T11:23:29;18.52;;;10.25;;
22660;SDS011;11497;52.222;21.246;2023-02-28T11:26:04;17.80;;;9.55;;
22660;SDS011;11497;52.222;21.246;2023-02-28T11:28:33;15.15;;;9.70;;
22660;SDS011;11497;52.222;21.246;2023-02-28T11:33:44;15.00;;;10.38;;
22660;SDS011;11497;52.222;21.246;2023-02-28T11:36:27;16.23;;;9.65;;
22660;SDS011;11497;52.222;21.246;2023-02-28T11:39:04;18.67;;;9.95;;
22660;SDS011;11497;52.222;21.246;2023-02-28T11:47:15;15.90;;;10.05;;
22660;SDS011;11497;52.222;21.246;2023-02-28T11:52:53;19.45;;;10.02;;
22660;SDS011;11497;52.222;21.246;2023-02-28T11:55:42;17.42;;;10.52;;
22660;SDS011;11497;52.222;21.246;2023-02-28T12:04:17;17.17;;;10.15;;
22660;SDS011;11497;52.222;21.246;2023-02-28T12:06:50;20.00;;;11.25;;
22660;SDS011;11497;52.222;21.246;2023-02-28T12:09:40;21.17;;;10.98;;
22660;SDS011;11497;52.222;21.246;2023-02-28T12:12:48;25.27;;;10.87;;
22660;SDS011;11497;52.222;21.246;2023-02-28T12:18:35;19.52;;;11.25;;
22660;SDS011;11497;52.222;21.246;2023-02-28T12:34:25;21.05;;;12.93;;
22660;SDS011;11497;52.222;21.246;2023-02-28T12:36:58;19.67;;;11.50;;
22660;SDS011;11497;52.222;21.246;2023-02-28T12:39:38;23.02;;;12.48;;
22660;SDS011;11497;52.222;21.246;2023-02-28T12:42:27;23.58;;;12.20;;
22660;SDS011;11497;52.222;21.246;2023-02-28T12:45:02;19.35;;;12.30;;
22660;SDS011;11497;52.222;21.246;2023-02-28T12:47:37;18.98;;;12.00;;
22660;SDS011;11497;52.222;21.246;2023-02-28T12:50:09;19.92;;;12.82;;
22660;SDS011;11497;52.222;21.246;2023-02-28T12:52:47;21.17;;;12.30;;
22660;SDS011;11497;52.222;21.246;2023-02-28T12:55:40;18.83;;;11.95;;
22660;SDS011;11497;52.222;21.246;2023-02-28T12:58:20;24.85;;;11.93;;
22660;SDS011;11497;52.222;21.246;2023-02-28T13:07:08;23.42;;;12.57;;
22660;SDS011;11497;52.222;21.246;2023-02-28T13:09:58;20.40;;;12.48;;
22660;SDS011;11497;52.222;21.246;2023-02-28T13:12:29;21.77;;;12.20;;
22660;SDS011;11497;52.222;21.246;2023-02-28T13:17:49;22.52;;;12.50;;
22660;SDS011;11497;52.222;21.246;2023-02-28T13:20:26;24.70;;;12.45;;
22660;SDS011;11497;52.222;21.246;2023-02-28T13:23:00;22.67;;;12.55;;
22660;SDS011;11497;52.222;21.246;2023-02-28T13:28:09;26.13;;;12.88;;
22660;SDS011;11497;52.222;21.246;2023-02-28T13:33:33;21.73;;;13.63;;
22660;SDS011;11497;52.222;21.246;2023-02-28T13:46:34;26.83;;;13.43;;
22660;SDS011;11497;52.222;21.246;2023-02-28T13:51:56;22.48;;;12.75;;
22660;SDS011;11497;52.222;21.246;2023-02-28T14:05:20;24.38;;;13.27;;
22660;SDS011;11497;52.222;21.246;2023-02-28T14:07:58;24.80;;;13.55;;
22660;SDS011;11497;52.222;21.246;2023-02-28T14:10:51;24.73;;;13.10;;
22660;SDS011;11497;52.222;21.246;2023-02-28T14:13:42;24.00;;;13.13;;
22660;SDS011;11497;52.222;21.246;2023-02-28T14:16:14;25.13;;;12.57;;
22660;SDS011;11497;52.222;21.246;2023-02-28T14:18:51;23.00;;;12.35;;
22660;SDS011;11497;52.222;21.246;2023-02-28T14:21:32;22.80;;;12.02;;
22660;SDS011;11497;52.222;21.246;2023-02-28T14:29:51;25.30;;;13.63;;
22660;SDS011;11497;52.222;21.246;2023-02-28T14:33:41;23.00;;;12.52;;
22660;SDS011;11497;52.222;21.246;2023-02-28T14:41:41;22.33;;;12.82;;
22660;SDS011;11497;52.222;21.246;2023-02-28T14:44:18;23.35;;;13.43;;
22660;SDS011;11497;52.222;21.246;2023-02-28T14:46:52;25.83;;;13.68;;
22660;SDS011;11497;52.222;21.246;2023-02-28T14:52:02;24.83;;;13.83;;
22660;SDS011;11497;52.222;21.246;2023-02-28T14:54:37;27.40;;;14.52;;
22660;SDS011;11497;52.222;21.246;2023-02-28T14:57:06;34.80;;;16.55;;
22660;SDS011;11497;52.222;21.246;2023-02-28T14:59:56;27.08;;;15.23;;
22660;SDS011;11497;52.222;21.246;2023-02-28T15:02:48;22.98;;;13.20;;
22660;SDS011;11497;52.222;21.246;2023-02-28T15:08:00;22.73;;;13.02;;
22660;SDS011;11497;52.222;21.246;2023-02-28T15:10:43;27.05;;;13.32;;
22660;SDS011;11497;52.222;21.246;2023-02-28T15:13:19;21.38;;;12.13;;
22660;SDS011;11497;52.222;21.246;2023-02-28T15:15:52;27.23;;;13.60;;
22660;SDS011;11497;52.222;21.246;2023-02-28T15:21:17;24.95;;;12.50;;
22660;SDS011;11497;52.222;21.246;2023-02-28T15:23:49;23.05;;;13.65;;
22660;SDS011;11497;52.222;21.246;2023-02-28T15:26:30;25.85;;;13.93;;
22660;SDS011;11497;52.222;21.246;2023-02-28T15:29:06;22.60;;;13.60;;
22660;SDS011;11497;52.222;21.246;2023-02-28T15:31:44;28.60;;;13.15;;
22660;SDS011;11497;52.222;21.246;2023-02-28T15:34:27;31.42;;;13.43;;
22660;SDS011;11497;52.222;21.246;2023-02-28T15:42:57;32.67;;;15.90;;
22660;SDS011;11497;52.222;21.246;2023-02-28T15:45:26;31.35;;;15.57;;
22660;SDS011;11497;52.222;21.246;2023-02-28T15:47:56;36.60;;;15.60;;
22660;SDS011;11497;52.222;21.246;2023-02-28T15:50:34;31.75;;;15.80;;
22660;SDS011;11497;52.222;21.246;2023-02-28T15:53:02;32.95;;;15.07;;
22660;SDS011;11497;52.222;21.246;2023-02-28T15:55:30;30.25;;;16.35;;
22660;SDS011;11497;52.222;21.246;2023-02-28T15:58:00;33.88;;;17.30;;
22660;SDS011;11497;52.222;21.246;2023-02-28T16:00:29;32.47;;;16.15;;
22660;SDS011;11497;52.222;21.246;2023-02-28T16:02:59;35.75;;;16.05;;
22660;SDS011;11497;52.222;21.246;2023-02-28T16:05:29;30.95;;;15.95;;
22660;SDS011;11497;52.222;21.246;2023-02-28T16:07:59;34.58;;;17.25;;
22660;SDS011;11497;52.222;21.246;2023-02-28T16:10:37;33.38;;;18.40;;
22660;SDS011;11497;52.222;21.246;2023-02-28T16:13:05;36.13;;;18.95;;
22660;SDS011;11497;52.222;21.246;2023-02-28T16:15:43;33.85;;;17.65;;
22660;SDS011;11497;52.222;21.246;2023-02-28T16:18:12;34.55;;;16.88;;
22660;SDS011;11497;52.222;21.246;2023-02-28T16:20:40;38.50;;;16.67;;
22660;SDS011;11497;52.222;21.246;2023-02-28T16:23:08;36.88;;;17.27;;
22660;SDS011;11497;52.222;21.246;2023-02-28T16:25:37;36.75;;;16.40;;
22660;SDS011;11497;52.222;21.246;2023-02-28T16:28:09;39.80;;;15.52;;
22660;SDS011;11497;52.222;21.246;2023-02-28T16:30:42;46.80;;;20.75;;
22660;SDS011;11497;52.222;21.246;2023-02-28T16:33:11;51.90;;;19.20;;
22660;SDS011;11497;52.222;21.246;2023-02-28T16:35:38;40.35;;;18.30;;
22660;SDS011;11497;52.222;21.246;2023-02-28T16:38:06;48.28;;;18.80;;
22660;SDS011;11497;52.222;21.246;2023-02-28T16:40:34;44.35;;;16.73;;
22660;SDS011;11497;52.222;21.246;2023-02-28T16:43:04;40.38;;;17.80;;
22660;SDS011;11497;52.222;21.246;2023-02-28T16:45:44;42.20;;;17.08;;
22660;SDS011;11497;52.222;21.246;2023-02-28T16:48:15;34.90;;;16.73;;
22660;SDS011;11497;52.222;21.246;2023-02-28T16:50:43;33.83;;;16.55;;
22660;SDS011;11497;52.222;21.246;2023-02-28T16:53:11;40.92;;;18.90;;
22660;SDS011;11497;52.222;21.246;2023-02-28T16:55:40;61.30;;;21.67;;
22660;SDS011;11497;52.222;21.246;2023-02-28T16:58:10;76.60;;;29.63;;
22660;SDS011;11497;52.222;21.246;2023-02-28T17:00:42;70.75;;;29.55;;
22660;SDS011;11497;52.222;21.246;2023-02-28T17:03:20;87.05;;;32.20;;
22660;SDS011;11497;52.222;21.246;2023-02-28T17:05:59;112.75;;;41.20;;
22660;SDS011;11497;52.222;21.246;2023-02-28T17:08:28;91.68;;;35.53;;
22660;SDS011;11497;52.222;21.246;2023-02-28T17:10:58;91.68;;;32.78;;
22660;SDS011;11497;52.222;21.246;2023-02-28T17:13:28;81.03;;;31.80;;